sensor_id;sensor_type;location;lat;lon;timestamp;pressure;altitude;pressure_sealevel;temperature;humidity
72689;BME280;61053;52.166;4.506;2022-08-19T00:00:28;101413.88;;;19.76;75.33
72689;BME280;61053;52.166;4.506;2022-08-19T00:02:54;101406.28;;;19.80;74.73
72689;BME280;61053;52.166;4.506;2022-08-19T00:05:21;101408.75;;;19.73;75.55
72689;BME280;61053;52.166;4.506;2022-08-19T00:07:48;101405.94;;;19.65;75.55
72689;BME280;61053;52.166;4.506;2022-08-19T00:10:16;101400.72;;;19.54;75.85
72689;BME280;61053;52.166;4.506;2022-08-19T00:12:42;101402.75;;;19.52;75.93
72689;BME280;61053;52.166;4.506;2022-08-19T00:15:10;101399.50;;;19.66;76.06
72689;BME280;61053;52.166;4.506;2022-08-19T00:17:40;101402.78;;;19.70;75.73
72689;BME280;61053;52.166;4.506;2022-08-19T00:20:09;101397.63;;;19.76;75.62
72689;BME280;61053;52.166;4.506;2022-08-19T00:22:38;101402.53;;;19.63;76.54
72689;BME280;61053;52.166;4.506;2022-08-19T00:25:06;101407.38;;;19.69;76.16
72689;BME280;61053;52.166;4.506;2022-08-19T00:27:33;101401.97;;;19.59;76.04
72689;BME280;61053;52.166;4.506;2022-08-19T00:29:59;101411.06;;;19.68;75.49
72689;BME280;61053;52.166;4.506;2022-08-19T00:32:28;101407.84;;;19.55;76.05
72689;BME280;61053;52.166;4.506;2022-08-19T00:34:55;101404.47;;;19.53;76.18
72689;BME280;61053;52.166;4.506;2022-08-19T00:37:23;101408.53;;;19.57;75.94
72689;BME280;61053;52.166;4.506;2022-08-19T00:39:52;101407.84;;;19.37;77.13
72689;BME280;61053;52.166;4.506;2022-08-19T00:42:20;101411.44;;;19.28;77.63
72689;BME280;61053;52.166;4.506;2022-08-19T00:44:47;101410.34;;;19.21;77.42
72689;BME280;61053;52.166;4.506;2022-08-19T00:47:12;101407.38;;;19.42;77.01
72689;BME280;61053;52.166;4.506;2022-08-19T00:49:45;101411.97;;;19.31;77.16
72689;BME280;61053;52.166;4.506;2022-08-19T00:52:47;101405.00;;;19.29;76.77
72689;BME280;61053;52.166;4.506;2022-08-19T00:55:19;101403.41;;;19.36;77.29
72689;BME280;61053;52.166;4.506;2022-08-19T00:57:51;101395.59;;;19.33;77.18
72689;BME280;61053;52.166;4.506;2022-08-19T01:00:23;101405.47;;;19.24;77.46
72689;BME280;61053;52.166;4.506;2022-08-19T01:02:52;101399.34;;;19.22;77.35
72689;BME280;61053;52.166;4.506;2022-08-19T01:05:21;101401.59;;;19.27;77.53
72689;BME280;61053;52.166;4.506;2022-08-19T01:07:53;101405.63;;;19.23;77.45
72689;BME280;61053;52.166;4.506;2022-08-19T01:10:24;101417.97;;;19.35;76.76
72689;BME280;61053;52.166;4.506;2022-08-19T01:12:53;101408.09;;;19.16;77.12
72689;BME280;61053;52.166;4.506;2022-08-19T01:15:25;101414.59;;;19.23;77.45
72689;BME280;61053;52.166;4.506;2022-08-19T01:17:55;101422.34;;;19.18;77.24
72689;BME280;61053;52.166;4.506;2022-08-19T01:20:24;101420.72;;;19.25;77.16
72689;BME280;61053;52.166;4.506;2022-08-19T01:22:53;101416.06;;;19.17;76.79
72689;BME280;61053;52.166;4.506;2022-08-19T01:25:26;101427.03;;;19.16;76.96
72689;BME280;61053;52.166;4.506;2022-08-19T01:27:56;101418.09;;;19.06;77.17
72689;BME280;61053;52.166;4.506;2022-08-19T01:30:31;101422.28;;;19.00;77.27
72689;BME280;61053;52.166;4.506;2022-08-19T01:32:59;101424.84;;;19.02;77.41
72689;BME280;61053;52.166;4.506;2022-08-19T01:35:26;101419.25;;;19.03;77.12
72689;BME280;61053;52.166;4.506;2022-08-19T01:38:03;101413.16;;;19.01;77.17
72689;BME280;61053;52.166;4.506;2022-08-19T01:40:37;101418.00;;;18.97;78.23
72689;BME280;61053;52.166;4.506;2022-08-19T01:43:05;101411.78;;;18.87;78.13
72689;BME280;61053;52.166;4.506;2022-08-19T01:45:33;101411.78;;;18.87;78.32
72689;BME280;61053;52.166;4.506;2022-08-19T01:48:00;101424.00;;;19.01;77.51
72689;BME280;61053;52.166;4.506;2022-08-19T01:50:27;101421.13;;;19.03;77.22
72689;BME280;61053;52.166;4.506;2022-08-19T01:52:53;101418.41;;;19.03;77.53
72689;BME280;61053;52.166;4.506;2022-08-19T01:55:23;101430.78;;;19.05;77.70
72689;BME280;61053;52.166;4.506;2022-08-19T01:57:52;101421.50;;;18.80;78.31
72689;BME280;61053;52.166;4.506;2022-08-19T02:00:24;101425.91;;;18.81;79.06
72689;BME280;61053;52.166;4.506;2022-08-19T02:02:54;101414.22;;;18.81;78.98
72689;BME280;61053;52.166;4.506;2022-08-19T02:05:19;101413.03;;;18.93;78.78
72689;BME280;61053;52.166;4.506;2022-08-19T02:07:46;101413.09;;;18.83;78.89
72689;BME280;61053;52.166;4.506;2022-08-19T02:10:22;101408.22;;;18.87;78.57
72689;BME280;61053;52.166;4.506;2022-08-19T02:12:48;101408.25;;;18.77;78.79
72689;BME280;61053;52.166;4.506;2022-08-19T02:15:16;101418.94;;;18.79;78.40
72689;BME280;61053;52.166;4.506;2022-08-19T02:17:46;101414.38;;;18.69;78.96
72689;BME280;61053;52.166;4.506;2022-08-19T02:20:13;101414.25;;;18.61;78.83
72689;BME280;61053;52.166;4.506;2022-08-19T02:22:40;101413.00;;;18.55;79.26
72689;BME280;61053;52.166;4.506;2022-08-19T02:25:08;101409.28;;;18.66;78.93
72689;BME280;61053;52.166;4.506;2022-08-19T02:27:38;101406.13;;;18.61;79.28
72689;BME280;61053;52.166;4.506;2022-08-19T02:30:16;101406.16;;;18.51;79.87
72689;BME280;61053;52.166;4.506;2022-08-19T02:32:43;101398.19;;;18.60;79.84
72689;BME280;61053;52.166;4.506;2022-08-19T02:35:09;101405.19;;;18.52;80.13
72689;BME280;61053;52.166;4.506;2022-08-19T02:37:36;101410.69;;;18.61;80.06
72689;BME280;61053;52.166;4.506;2022-08-19T02:40:28;101403.28;;;18.63;80.50
72689;BME280;61053;52.166;4.506;2022-08-19T02:42:55;101401.16;;;18.66;80.71
72689;BME280;61053;52.166;4.506;2022-08-19T02:45:22;101403.13;;;18.74;80.95
72689;BME280;61053;52.166;4.506;2022-08-19T02:47:47;101400.00;;;18.69;81.09
72689;BME280;61053;52.166;4.506;2022-08-19T02:50:13;101396.16;;;18.71;81.28
72689;BME280;61053;52.166;4.506;2022-08-19T02:52:39;101393.56;;;18.80;81.21
72689;BME280;61053;52.166;4.506;2022-08-19T02:55:06;101387.88;;;18.83;81.23
72689;BME280;61053;52.166;4.506;2022-08-19T02:57:32;101380.97;;;18.98;80.84
72689;BME280;61053;52.166;4.506;2022-08-19T02:59:59;101374.19;;;19.12;80.46
72689;BME280;61053;52.166;4.506;2022-08-19T03:02:24;101370.25;;;19.24;80.01
72689;BME280;61053;52.166;4.506;2022-08-19T03:04:50;101362.75;;;18.90;81.12
72689;BME280;61053;52.166;4.506;2022-08-19T03:07:17;101366.31;;;18.91;81.35
72689;BME280;61053;52.166;4.506;2022-08-19T03:09:43;101368.31;;;18.89;81.38
72689;BME280;61053;52.166;4.506;2022-08-19T03:12:09;101368.91;;;18.73;82.32
72689;BME280;61053;52.166;4.506;2022-08-19T03:14:36;101364.06;;;18.86;81.69
72689;BME280;61053;52.166;4.506;2022-08-19T03:17:03;101365.66;;;18.79;82.04
72689;BME280;61053;52.166;4.506;2022-08-19T03:19:30;101362.94;;;18.79;82.36
72689;BME280;61053;52.166;4.506;2022-08-19T03:21:57;101366.81;;;18.76;82.39
72689;BME280;61053;52.166;4.506;2022-08-19T03:24:25;101374.38;;;18.63;82.93
72689;BME280;61053;52.166;4.506;2022-08-19T03:26:54;101383.16;;;18.85;82.06
72689;BME280;61053;52.166;4.506;2022-08-19T03:29:29;101375.66;;;18.69;82.53
72689;BME280;61053;52.166;4.506;2022-08-19T03:31:58;101367.34;;;18.90;81.89
72689;BME280;61053;52.166;4.506;2022-08-19T03:34:29;101369.22;;;18.80;82.18
72689;BME280;61053;52.166;4.506;2022-08-19T03:36:56;101362.66;;;18.72;82.57
72689;BME280;61053;52.166;4.506;2022-08-19T03:39:24;101367.53;;;18.79;82.19
72689;BME280;61053;52.166;4.506;2022-08-19T03:41:54;101358.81;;;18.75;82.44
72689;BME280;61053;52.166;4.506;2022-08-19T03:44:25;101360.50;;;18.86;82.20
72689;BME280;61053;52.166;4.506;2022-08-19T03:46:57;101365.97;;;18.66;83.21
72689;BME280;61053;52.166;4.506;2022-08-19T03:49:27;101368.97;;;18.63;83.07
72689;BME280;61053;52.166;4.506;2022-08-19T03:51:57;101364.81;;;18.69;82.99
72689;BME280;61053;52.166;4.506;2022-08-19T03:54:27;101357.88;;;18.56;83.22
72689;BME280;61053;52.166;4.506;2022-08-19T03:56:57;101364.00;;;18.59;83.19
72689;BME280;61053;52.166;4.506;2022-08-19T03:59:30;101370.69;;;18.64;83.31
72689;BME280;61053;52.166;4.506;2022-08-19T04:02:10;101365.72;;;18.60;83.52
72689;BME280;61053;52.166;4.506;2022-08-19T04:04:39;101378.38;;;18.59;83.75
72689;BME280;61053;52.166;4.506;2022-08-19T04:07:09;101366.88;;;18.57;83.60
72689;BME280;61053;52.166;4.506;2022-08-19T04:09:37;101369.97;;;18.62;83.18
72689;BME280;61053;52.166;4.506;2022-08-19T04:12:04;101373.53;;;18.63;83.34
72689;BME280;61053;52.166;4.506;2022-08-19T04:14:30;101375.69;;;18.49;83.55
72689;BME280;61053;52.166;4.506;2022-08-19T04:16:58;101381.22;;;18.58;83.53
72689;BME280;61053;52.166;4.506;2022-08-19T04:19:25;101386.06;;;18.64;83.04
72689;BME280;61053;52.166;4.506;2022-08-19T04:21:55;101392.50;;;18.53;83.74
72689;BME280;61053;52.166;4.506;2022-08-19T04:24:21;101393.31;;;18.63;83.25
72689;BME280;61053;52.166;4.506;2022-08-19T04:26:47;101393.16;;;18.65;82.99
72689;BME280;61053;52.166;4.506;2022-08-19T04:29:17;101375.91;;;18.75;82.62
72689;BME280;61053;52.166;4.506;2022-08-19T04:31:47;101386.69;;;18.95;81.79
72689;BME280;61053;52.166;4.506;2022-08-19T04:34:15;101384.88;;;18.86;82.41
72689;BME280;61053;52.166;4.506;2022-08-19T04:36:44;101391.53;;;18.91;82.50
72689;BME280;61053;52.166;4.506;2022-08-19T04:39:14;101389.97;;;18.89;82.81
72689;BME280;61053;52.166;4.506;2022-08-19T04:41:41;101381.97;;;18.97;82.43
72689;BME280;61053;52.166;4.506;2022-08-19T04:44:26;101380.25;;;18.96;82.62
72689;BME280;61053;52.166;4.506;2022-08-19T04:46:55;101383.78;;;19.06;82.21
72689;BME280;61053;52.166;4.506;2022-08-19T04:49:22;101385.22;;;19.01;82.53
72689;BME280;61053;52.166;4.506;2022-08-19T04:51:50;101382.25;;;18.94;82.77
72689;BME280;61053;52.166;4.506;2022-08-19T04:54:19;101372.81;;;18.61;84.30
72689;BME280;61053;52.166;4.506;2022-08-19T04:56:48;101381.06;;;18.79;83.81
72689;BME280;61053;52.166;4.506;2022-08-19T04:59:17;101391.50;;;19.01;82.68
72689;BME280;61053;52.166;4.506;2022-08-19T05:01:45;101385.97;;;19.21;82.20
72689;BME280;61053;52.166;4.506;2022-08-19T05:04:16;101393.38;;;18.91;83.44
72689;BME280;61053;52.166;4.506;2022-08-19T05:06:44;101394.22;;;18.91;83.52
72689;BME280;61053;52.166;4.506;2022-08-19T05:09:12;101387.47;;;19.05;83.01
72689;BME280;61053;52.166;4.506;2022-08-19T05:11:38;101394.09;;;19.21;82.52
72689;BME280;61053;52.166;4.506;2022-08-19T05:14:04;101391.22;;;19.22;82.21
72689;BME280;61053;52.166;4.506;2022-08-19T05:16:31;101390.25;;;19.23;82.46
72689;BME280;61053;52.166;4.506;2022-08-19T05:18:56;101398.41;;;19.13;82.75
72689;BME280;61053;52.166;4.506;2022-08-19T05:21:41;101405.72;;;19.03;83.65
72689;BME280;61053;52.166;4.506;2022-08-19T05:24:27;101407.19;;;19.25;83.07
72689;BME280;61053;52.166;4.506;2022-08-19T05:26:55;101398.94;;;19.45;81.94
72689;BME280;61053;52.166;4.506;2022-08-19T05:29:26;101394.88;;;19.31;82.57
72689;BME280;61053;52.166;4.506;2022-08-19T05:31:54;101394.09;;;19.21;83.39
72689;BME280;61053;52.166;4.506;2022-08-19T05:34:21;101389.38;;;19.23;83.19
72689;BME280;61053;52.166;4.506;2022-08-19T05:36:53;101386.06;;;19.29;83.04
72689;BME280;61053;52.166;4.506;2022-08-19T05:39:28;101394.88;;;19.31;82.74
72689;BME280;61053;52.166;4.506;2022-08-19T05:42:01;101393.66;;;19.25;83.23
72689;BME280;61053;52.166;4.506;2022-08-19T05:44:31;101383.00;;;19.14;83.93
72689;BME280;61053;52.166;4.506;2022-08-19T05:46:59;101384.13;;;19.21;83.76
72689;BME280;61053;52.166;4.506;2022-08-19T05:49:29;101378.56;;;19.23;83.55
72689;BME280;61053;52.166;4.506;2022-08-19T05:51:55;101381.97;;;19.25;83.77
72689;BME280;61053;52.166;4.506;2022-08-19T05:54:22;101387.47;;;19.33;83.53
72689;BME280;61053;52.166;4.506;2022-08-19T05:56:49;101385.25;;;19.46;83.04
72689;BME280;61053;52.166;4.506;2022-08-19T05:59:17;101391.28;;;19.40;83.28
72689;BME280;61053;52.166;4.506;2022-08-19T06:01:45;101390.75;;;19.54;82.86
72689;BME280;61053;52.166;4.506;2022-08-19T06:04:12;101386.16;;;19.37;83.82
72689;BME280;61053;52.166;4.506;2022-08-19T06:06:42;101398.00;;;19.81;81.86
72689;BME280;61053;52.166;4.506;2022-08-19T06:09:08;101406.28;;;19.98;81.11
72689;BME280;61053;52.166;4.506;2022-08-19T06:11:40;101396.22;;;19.90;81.38
72689;BME280;61053;52.166;4.506;2022-08-19T06:14:12;101388.94;;;19.91;81.42
72689;BME280;61053;52.166;4.506;2022-08-19T06:16:41;101392.81;;;19.88;81.59
72689;BME280;61053;52.166;4.506;2022-08-19T06:19:11;101397.75;;;19.75;82.10
72689;BME280;61053;52.166;4.506;2022-08-19T06:21:40;101402.22;;;19.66;82.57
72689;BME280;61053;52.166;4.506;2022-08-19T06:24:09;101398.47;;;19.49;83.22
72689;BME280;61053;52.166;4.506;2022-08-19T06:26:40;101396.34;;;19.53;83.37
72689;BME280;61053;52.166;4.506;2022-08-19T06:29:09;101394.25;;;19.65;82.95
72689;BME280;61053;52.166;4.506;2022-08-19T06:31:44;101393.81;;;19.69;82.90
72689;BME280;61053;52.166;4.506;2022-08-19T06:34:15;101399.69;;;20.00;81.48
72689;BME280;61053;52.166;4.506;2022-08-19T06:36:44;101389.00;;;19.99;81.61
72689;BME280;61053;52.166;4.506;2022-08-19T06:39:19;101399.06;;;20.07;81.24
72689;BME280;61053;52.166;4.506;2022-08-19T06:41:50;101393.31;;;20.10;81.43
72689;BME280;61053;52.166;4.506;2022-08-19T06:44:19;101397.81;;;20.19;81.01
72689;BME280;61053;52.166;4.506;2022-08-19T06:46:47;101401.03;;;20.22;81.28
72689;BME280;61053;52.166;4.506;2022-08-19T06:49:14;101398.94;;;20.34;80.74
72689;BME280;61053;52.166;4.506;2022-08-19T06:51:43;101398.72;;;20.28;80.83
72689;BME280;61053;52.166;4.506;2022-08-19T06:54:13;101391.13;;;20.31;80.81
72689;BME280;61053;52.166;4.506;2022-08-19T06:56:39;101388.38;;;20.49;80.12
72689;BME280;61053;52.166;4.506;2022-08-19T06:59:08;101388.19;;;20.51;80.50
72689;BME280;61053;52.166;4.506;2022-08-19T07:01:39;101387.47;;;20.66;79.39
72689;BME280;61053;52.166;4.506;2022-08-19T07:04:08;101395.63;;;20.66;79.55
72689;BME280;61053;52.166;4.506;2022-08-19T07:06:35;101386.38;;;20.33;80.95
72689;BME280;61053;52.166;4.506;2022-08-19T07:09:03;101391.50;;;20.62;80.14
72689;BME280;61053;52.166;4.506;2022-08-19T07:11:32;101392.22;;;20.99;78.78
72689;BME280;61053;52.166;4.506;2022-08-19T07:13:59;101392.31;;;21.23;77.93
72689;BME280;61053;52.166;4.506;2022-08-19T07:16:25;101400.94;;;21.11;78.21
72689;BME280;61053;52.166;4.506;2022-08-19T07:18:55;101399.06;;;21.11;78.05
72689;BME280;61053;52.166;4.506;2022-08-19T07:21:27;101405.56;;;21.26;78.17
72689;BME280;61053;52.166;4.506;2022-08-19T07:23:54;101404.91;;;21.33;77.48
72689;BME280;61053;52.166;4.506;2022-08-19T07:26:25;101415.13;;;21.39;77.81
72689;BME280;61053;52.166;4.506;2022-08-19T07:28:53;101417.22;;;21.53;76.75
72689;BME280;61053;52.166;4.506;2022-08-19T07:31:22;101411.28;;;21.49;76.83
72689;BME280;61053;52.166;4.506;2022-08-19T07:33:51;101420.53;;;21.31;77.53
72689;BME280;61053;52.166;4.506;2022-08-19T07:36:22;101414.56;;;21.27;77.66
72689;BME280;61053;52.166;4.506;2022-08-19T07:38:51;101408.19;;;21.44;77.76
72689;BME280;61053;52.166;4.506;2022-08-19T07:41:20;101412.19;;;21.83;75.93
72689;BME280;61053;52.166;4.506;2022-08-19T07:43:48;101409.16;;;21.94;75.02
72689;BME280;61053;52.166;4.506;2022-08-19T07:46:15;101411.19;;;21.92;74.63
72689;BME280;61053;52.166;4.506;2022-08-19T07:48:42;101412.34;;;21.81;75.87
72689;BME280;61053;52.166;4.506;2022-08-19T07:51:13;101408.59;;;21.74;75.32
72689;BME280;61053;52.166;4.506;2022-08-19T07:53:40;101410.44;;;21.65;75.93
72689;BME280;61053;52.166;4.506;2022-08-19T07:56:06;101409.44;;;21.66;74.62
72689;BME280;61053;52.166;4.506;2022-08-19T07:58:35;101404.00;;;21.66;74.74
72689;BME280;61053;52.166;4.506;2022-08-19T08:01:04;101412.84;;;21.77;73.75
72689;BME280;61053;52.166;4.506;2022-08-19T08:03:33;101409.41;;;21.58;74.76
72689;BME280;61053;52.166;4.506;2022-08-19T08:06:17;101416.06;;;21.64;74.70
72689;BME280;61053;52.166;4.506;2022-08-19T08:09:05;101423.53;;;21.62;74.38
72689;BME280;61053;52.166;4.506;2022-08-19T08:11:47;101427.28;;;21.69;73.81
72689;BME280;61053;52.166;4.506;2022-08-19T08:14:18;101427.16;;;21.87;72.27
72689;BME280;61053;52.166;4.506;2022-08-19T08:16:48;101429.72;;;22.05;70.76
72689;BME280;61053;52.166;4.506;2022-08-19T08:19:16;101438.38;;;22.00;71.42
72689;BME280;61053;52.166;4.506;2022-08-19T08:21:44;101438.22;;;22.02;71.81
72689;BME280;61053;52.166;4.506;2022-08-19T08:24:11;101437.06;;;22.21;70.78
72689;BME280;61053;52.166;4.506;2022-08-19T08:26:37;101436.84;;;21.89;72.01
72689;BME280;61053;52.166;4.506;2022-08-19T08:29:03;101437.84;;;21.80;73.18
72689;BME280;61053;52.166;4.506;2022-08-19T08:31:29;101444.50;;;21.94;72.26
72689;BME280;61053;52.166;4.506;2022-08-19T08:33:54;101445.22;;;22.12;71.14
72689;BME280;61053;52.166;4.506;2022-08-19T08:36:20;101443.84;;;22.17;71.41
72689;BME280;61053;52.166;4.506;2022-08-19T08:38:45;101447.22;;;21.94;71.61
72689;BME280;61053;52.166;4.506;2022-08-19T08:41:22;101447.38;;;22.01;71.31
72689;BME280;61053;52.166;4.506;2022-08-19T08:44:16;101449.25;;;22.00;71.46
72689;BME280;61053;52.166;4.506;2022-08-19T08:47:11;101445.84;;;21.90;72.50
72689;BME280;61053;52.166;4.506;2022-08-19T08:49:52;101438.34;;;21.76;72.95
72689;BME280;61053;52.166;4.506;2022-08-19T08:54:57;101451.78;;;21.93;72.12
72689;BME280;61053;52.166;4.506;2022-08-19T08:57:32;101452.56;;;22.37;71.41
72689;BME280;61053;52.166;4.506;2022-08-19T09:00:08;101449.31;;;22.25;71.29
72689;BME280;61053;52.166;4.506;2022-08-19T09:02:39;101450.50;;;22.39;70.35
72689;BME280;61053;52.166;4.506;2022-08-19T09:05:05;101455.75;;;22.65;69.24
72689;BME280;61053;52.166;4.506;2022-08-19T09:07:49;101454.25;;;22.46;71.11
72689;BME280;61053;52.166;4.506;2022-08-19T09:10:46;101456.63;;;22.41;72.18
72689;BME280;61053;52.166;4.506;2022-08-19T09:13:35;101460.19;;;22.33;72.50
72689;BME280;61053;52.166;4.506;2022-08-19T09:16:14;101459.69;;;22.62;71.58
72689;BME280;61053;52.166;4.506;2022-08-19T09:18:48;101457.41;;;22.90;71.12
72689;BME280;61053;52.166;4.506;2022-08-19T09:21:21;101455.81;;;23.21;70.01
72689;BME280;61053;52.166;4.506;2022-08-19T09:23:48;101464.53;;;23.55;68.86
72689;BME280;61053;52.166;4.506;2022-08-19T09:26:17;101458.34;;;23.62;68.43
72689;BME280;61053;52.166;4.506;2022-08-19T09:28:46;101456.28;;;23.95;66.82
72689;BME280;61053;52.166;4.506;2022-08-19T09:31:17;101464.53;;;23.87;66.32
72689;BME280;61053;52.166;4.506;2022-08-19T09:33:46;101460.41;;;24.14;65.56
72689;BME280;61053;52.166;4.506;2022-08-19T09:36:14;101463.38;;;24.27;63.40
72689;BME280;61053;52.166;4.506;2022-08-19T09:38:42;101471.06;;;23.38;66.69
72689;BME280;61053;52.166;4.506;2022-08-19T09:41:10;101471.34;;;23.51;67.21
72689;BME280;61053;52.166;4.506;2022-08-19T09:43:40;101471.69;;;23.48;66.59
72689;BME280;61053;52.166;4.506;2022-08-19T09:46:07;101467.91;;;23.18;68.12
72689;BME280;61053;52.166;4.506;2022-08-19T09:48:38;101468.16;;;22.84;69.64
72689;BME280;61053;52.166;4.506;2022-08-19T09:51:07;101474.75;;;22.97;69.95
72689;BME280;61053;52.166;4.506;2022-08-19T09:53:42;101474.09;;;23.43;67.81
72689;BME280;61053;52.166;4.506;2022-08-19T09:56:13;101474.78;;;23.45;67.25
72689;BME280;61053;52.166;4.506;2022-08-19T09:58:40;101476.97;;;23.89;66.58
72689;BME280;61053;52.166;4.506;2022-08-19T10:01:08;101469.28;;;23.93;67.02
72689;BME280;61053;52.166;4.506;2022-08-19T10:03:36;101473.44;;;23.72;66.56
72689;BME280;61053;52.166;4.506;2022-08-19T10:06:04;101476.28;;;23.48;65.81
72689;BME280;61053;52.166;4.506;2022-08-19T10:08:34;101470.28;;;23.21;66.42
72689;BME280;61053;52.166;4.506;2022-08-19T10:11:02;101475.16;;;23.34;67.00
72689;BME280;61053;52.166;4.506;2022-08-19T10:13:30;101477.94;;;23.96;66.27
72689;BME280;61053;52.166;4.506;2022-08-19T10:16:07;101483.63;;;24.56;64.97
72689;BME280;61053;52.166;4.506;2022-08-19T10:18:36;101484.06;;;24.82;62.95
72689;BME280;61053;52.166;4.506;2022-08-19T10:23:34;101472.78;;;24.01;64.51
72689;BME280;61053;52.166;4.506;2022-08-19T10:26:06;101472.84;;;23.93;63.38
72689;BME280;61053;52.166;4.506;2022-08-19T10:28:36;101483.22;;;23.98;65.02
72689;BME280;61053;52.166;4.506;2022-08-19T10:31:11;101480.97;;;24.25;64.14
72689;BME280;61053;52.166;4.506;2022-08-19T10:33:45;101481.06;;;23.85;63.60
72689;BME280;61053;52.166;4.506;2022-08-19T10:36:18;101478.09;;;23.95;64.35
72689;BME280;61053;52.166;4.506;2022-08-19T10:38:50;101479.88;;;24.34;63.34
72689;BME280;61053;52.166;4.506;2022-08-19T10:41:20;101477.88;;;25.03;61.81
72689;BME280;61053;52.166;4.506;2022-08-19T10:44:01;101480.22;;;25.06;60.60
72689;BME280;61053;52.166;4.506;2022-08-19T10:46:30;101470.84;;;24.71;61.45
72689;BME280;61053;52.166;4.506;2022-08-19T10:48:58;101474.66;;;24.01;63.39
72689;BME280;61053;52.166;4.506;2022-08-19T10:51:25;101465.81;;;23.99;64.37
72689;BME280;61053;52.166;4.506;2022-08-19T10:54:10;101476.22;;;24.18;63.99
72689;BME280;61053;52.166;4.506;2022-08-19T10:56:36;101470.59;;;24.81;62.80
72689;BME280;61053;52.166;4.506;2022-08-19T10:59:28;101469.84;;;24.87;62.29
72689;BME280;61053;52.166;4.506;2022-08-19T11:01:59;101477.38;;;25.00;63.53
72689;BME280;61053;52.166;4.506;2022-08-19T11:04:26;101485.47;;;24.93;63.41
72689;BME280;61053;52.166;4.506;2022-08-19T11:06:53;101481.09;;;25.88;59.50
72689;BME280;61053;52.166;4.506;2022-08-19T11:09:21;101468.88;;;28.14;54.73
72689;BME280;61053;52.166;4.506;2022-08-19T11:11:50;101468.75;;;29.93;49.39
72689;BME280;61053;52.166;4.506;2022-08-19T11:14:20;101472.72;;;29.97;48.12
72689;BME280;61053;52.166;4.506;2022-08-19T11:16:50;101468.69;;;28.82;51.30
72689;BME280;61053;52.166;4.506;2022-08-19T11:19:16;101476.22;;;27.87;53.67
72689;BME280;61053;52.166;4.506;2022-08-19T11:21:46;101471.25;;;25.42;59.44
72689;BME280;61053;52.166;4.506;2022-08-19T11:24:19;101473.09;;;24.68;62.33
72689;BME280;61053;52.166;4.506;2022-08-19T11:26:47;101478.78;;;23.97;64.87
72689;BME280;61053;52.166;4.506;2022-08-19T11:29:16;101480.13;;;24.01;64.77
72689;BME280;61053;52.166;4.506;2022-08-19T11:31:46;101483.72;;;24.48;64.12
72689;BME280;61053;52.166;4.506;2022-08-19T11:34:18;101479.34;;;24.76;63.11
72689;BME280;61053;52.166;4.506;2022-08-19T11:36:46;101479.47;;;25.42;61.13
72689;BME280;61053;52.166;4.506;2022-08-19T11:39:16;101477.06;;;24.65;61.92
72689;BME280;61053;52.166;4.506;2022-08-19T11:41:43;101480.56;;;24.74;61.15
72689;BME280;61053;52.166;4.506;2022-08-19T11:44:09;101483.44;;;24.57;62.95
72689;BME280;61053;52.166;4.506;2022-08-19T11:46:36;101489.03;;;25.32;60.78
72689;BME280;61053;52.166;4.506;2022-08-19T11:49:05;101480.75;;;25.61;60.59
72689;BME280;61053;52.166;4.506;2022-08-19T11:51:32;101487.97;;;25.84;58.96
72689;BME280;61053;52.166;4.506;2022-08-19T11:53:59;101487.31;;;25.45;59.67
72689;BME280;61053;52.166;4.506;2022-08-19T11:56:26;101489.16;;;25.45;60.17
72689;BME280;61053;52.166;4.506;2022-08-19T11:58:53;101483.13;;;25.49;60.26
72689;BME280;61053;52.166;4.506;2022-08-19T12:01:22;101477.88;;;25.99;58.68
72689;BME280;61053;52.166;4.506;2022-08-19T12:03:52;101481.44;;;25.04;61.20
72689;BME280;61053;52.166;4.506;2022-08-19T12:06:26;101481.31;;;25.72;59.02
72689;BME280;61053;52.166;4.506;2022-08-19T12:09:12;101482.41;;;25.41;59.99
72689;BME280;61053;52.166;4.506;2022-08-19T12:11:39;101482.06;;;24.61;62.22
72689;BME280;61053;52.166;4.506;2022-08-19T12:14:08;101488.19;;;24.78;62.60
72689;BME280;61053;52.166;4.506;2022-08-19T12:16:36;101482.75;;;26.04;59.27
72689;BME280;61053;52.166;4.506;2022-08-19T12:19:06;101483.66;;;26.82;57.12
72689;BME280;61053;52.166;4.506;2022-08-19T12:21:35;101478.69;;;26.64;57.73
72689;BME280;61053;52.166;4.506;2022-08-19T12:24:03;101471.88;;;26.82;56.40
72689;BME280;61053;52.166;4.506;2022-08-19T12:26:30;101479.53;;;26.93;57.06
72689;BME280;61053;52.166;4.506;2022-08-19T12:29:00;101465.03;;;26.00;57.01
72689;BME280;61053;52.166;4.506;2022-08-19T12:31:27;101471.25;;;25.94;57.82
72689;BME280;61053;52.166;4.506;2022-08-19T12:33:54;101462.41;;;26.56;56.26
72689;BME280;61053;52.166;4.506;2022-08-19T12:36:21;101473.75;;;28.72;51.80
72689;BME280;61053;52.166;4.506;2022-08-19T12:38:48;101461.22;;;31.25;45.80
72689;BME280;61053;52.166;4.506;2022-08-19T12:41:15;101469.13;;;33.77;41.39
72689;BME280;61053;52.166;4.506;2022-08-19T12:43:44;101466.97;;;33.79;39.57
72689;BME280;61053;52.166;4.506;2022-08-19T12:46:10;101462.50;;;33.38;40.25
72689;BME280;61053;52.166;4.506;2022-08-19T12:48:39;101463.75;;;32.36;42.07
72689;BME280;61053;52.166;4.506;2022-08-19T12:51:10;101468.09;;;30.22;45.97
72689;BME280;61053;52.166;4.506;2022-08-19T12:53:46;101455.88;;;29.80;47.98
72689;BME280;61053;52.166;4.506;2022-08-19T12:56:14;101462.50;;;29.14;49.56
72689;BME280;61053;52.166;4.506;2022-08-19T12:58:41;101463.19;;;27.48;52.53
72689;BME280;61053;52.166;4.506;2022-08-19T13:01:13;101463.28;;;26.63;55.01
72689;BME280;61053;52.166;4.506;2022-08-19T13:03:41;101466.44;;;26.39;55.85
72689;BME280;61053;52.166;4.506;2022-08-19T13:06:10;101458.91;;;27.04;55.99
72689;BME280;61053;52.166;4.506;2022-08-19T13:08:40;101457.66;;;27.89;53.54